createdAt,value
2019-02-09T00:02:30.976Z,20.65
2019-02-09T00:05:01.576Z,20.97
2019-02-09T00:07:32.225Z,23.95
2019-02-09T00:10:02.459Z,21.95
2019-02-09T00:12:31.476Z,22.52
2019-02-09T00:15:02.256Z,22.13
2019-02-09T00:20:01.789Z,22.47
2019-02-09T00:22:31.676Z,22.20
2019-02-09T00:25:00.657Z,19.73
2019-02-09T00:27:41.386Z,23.57
2019-02-09T00:32:44.264Z,19.05
2019-02-09T00:35:25.442Z,22.50
2019-02-09T00:37:57.757Z,20.10
2019-02-09T00:40:29.416Z,20.75
2019-02-09T00:43:01.346Z,18.87
2019-02-09T00:45:30.244Z,20.77
2019-02-09T00:48:00.276Z,23.27
2019-02-09T00:50:29.456Z,20.90
2019-02-09T00:52:59.716Z,19.45
2019-02-09T00:55:29.364Z,21.50
2019-02-09T00:57:58.316Z,21.50
2019-02-09T01:00:31.844Z,18.62
2019-02-09T01:03:02.736Z,21.70
2019-02-09T01:08:03.436Z,20.40
2019-02-09T01:10:32.376Z,21.60
2019-02-09T01:13:01.160Z,22.52
2019-02-09T01:15:31.417Z,23.02
2019-02-09T01:18:02.819Z,22.87
2019-02-09T01:20:32.015Z,21.87
2019-02-09T01:23:00.924Z,22.50
2019-02-09T01:25:30.384Z,21.20
2019-02-09T01:27:59.758Z,20.15
2019-02-09T01:30:30.616Z,24.10
2019-02-09T01:33:00.676Z,23.22
2019-02-09T01:35:29.557Z,22.05
2019-02-09T01:37:59.776Z,21.68
2019-02-09T01:40:30.697Z,22.35
2019-02-09T01:42:59.996Z,22.05
2019-02-09T01:45:33.056Z,24.18
2019-02-09T01:48:02.055Z,24.27
2019-02-09T01:50:34.416Z,22.20
2019-02-09T01:53:04.977Z,21.02
2019-02-09T01:55:35.445Z,24.05
2019-02-09T01:58:05.136Z,21.68
2019-02-09T02:00:37.221Z,22.32
2019-02-09T02:03:06.164Z,23.85
2019-02-09T02:05:35.356Z,22.02
2019-02-09T02:08:05.816Z,22.80
2019-02-09T02:10:37.356Z,22.87
2019-02-09T02:13:07.920Z,25.12
2019-02-09T02:15:37.036Z,27.67
2019-02-09T02:18:06.576Z,24.67
2019-02-09T02:20:35.658Z,21.50
2019-02-09T02:23:05.156Z,23.95
2019-02-09T02:25:35.595Z,23.87
2019-02-09T02:28:06.664Z,22.20
2019-02-09T02:30:38.010Z,22.93
2019-02-09T02:33:08.124Z,23.73
2019-02-09T02:35:38.795Z,21.97
2019-02-09T02:38:07.868Z,23.47
2019-02-09T02:40:38.736Z,23.15
2019-02-09T02:45:36.226Z,23.18
2019-02-09T02:48:05.324Z,23.77
2019-02-09T02:50:34.177Z,22.73
2019-02-09T02:53:04.678Z,26.12
2019-02-09T02:55:36.225Z,24.25
2019-02-09T02:58:06.116Z,27.73
2019-02-09T03:00:35.761Z,25.95
2019-02-09T03:03:04.655Z,22.73
2019-02-09T03:05:33.517Z,26.65
2019-02-09T03:08:05.086Z,26.12
2019-02-09T03:10:35.337Z,24.60
2019-02-09T03:13:04.576Z,27.17
2019-02-09T03:15:34.696Z,23.98
2019-02-09T03:18:05.303Z,25.15
2019-02-09T03:23:02.877Z,25.55
2019-02-09T03:25:35.650Z,24.67
2019-02-09T03:28:04.635Z,26.50
2019-02-09T03:30:46.415Z,25.32
2019-02-09T03:33:07.459Z,21.62
2019-02-09T03:38:04.899Z,24.37
2019-02-09T03:40:33.856Z,25.48
2019-02-09T03:43:03.417Z,24.70
2019-02-09T03:45:35.423Z,23.55
2019-02-09T03:48:04.616Z,25.72
2019-02-09T03:50:34.215Z,25.00
2019-02-09T03:53:03.178Z,24.30
2019-02-09T03:55:32.057Z,25.40
2019-02-09T03:58:01.425Z,27.35
2019-02-09T04:00:31.658Z,23.12
2019-02-09T04:03:01.264Z,25.02
2019-02-09T04:05:30.117Z,25.88
2019-02-09T04:07:58.916Z,24.60
2019-02-09T04:10:29.717Z,24.00
2019-02-09T04:15:28.156Z,24.00
2019-02-09T04:17:57.316Z,24.92
2019-02-09T04:20:26.355Z,27.07
2019-02-09T04:22:55.465Z,26.45
2019-02-09T04:25:26.156Z,25.62
2019-02-09T04:27:56.535Z,23.77
2019-02-09T04:30:30.639Z,24.35
2019-02-09T04:32:59.527Z,25.97
2019-02-09T04:35:28.797Z,25.52
2019-02-09T04:37:57.856Z,23.62
2019-02-09T04:40:33.516Z,25.17
2019-02-09T04:43:03.756Z,24.43
2019-02-09T04:45:34.396Z,24.35
2019-02-09T04:48:03.637Z,27.02
2019-02-09T04:50:34.596Z,23.55
2019-02-09T04:53:03.816Z,23.05
2019-02-09T04:55:32.669Z,25.08
2019-02-09T04:58:03.456Z,24.70
2019-02-09T05:03:01.476Z,23.65
2019-02-09T05:05:33.376Z,26.42
2019-02-09T05:08:02.236Z,22.85
2019-02-09T05:10:31.555Z,25.60
2019-02-09T05:13:03.336Z,22.98
2019-02-09T05:15:32.816Z,25.77
2019-02-09T05:18:02.416Z,25.12
2019-02-09T05:20:31.257Z,24.50
2019-02-09T05:23:00.075Z,24.98
2019-02-09T05:25:30.698Z,24.65
2019-02-09T05:28:01.184Z,23.90
2019-02-09T05:30:31.770Z,24.20
2019-02-09T05:33:01.168Z,23.47
2019-02-09T05:35:31.736Z,23.27
2019-02-09T05:38:01.016Z,23.15
2019-02-09T05:40:32.996Z,23.62
2019-02-09T05:43:02.115Z,24.90
2019-02-09T05:45:32.596Z,22.15
2019-02-09T05:48:01.857Z,22.55
2019-02-09T05:50:32.324Z,23.55
2019-02-09T05:53:03.178Z,24.30
2019-02-09T05:55:33.497Z,24.98
2019-02-09T05:58:02.277Z,24.02
2019-02-09T06:00:35.286Z,22.35
2019-02-09T06:03:06.196Z,22.48
2019-02-09T06:05:36.419Z,22.48
2019-02-09T06:08:05.560Z,22.10
2019-02-09T06:10:34.677Z,24.10
2019-02-09T06:13:05.298Z,24.43
2019-02-09T06:15:37.436Z,24.02
2019-02-09T06:18:06.736Z,21.90
2019-02-09T06:20:36.076Z,21.68
2019-02-09T06:23:04.900Z,21.90
2019-02-09T06:25:34.116Z,22.93
2019-02-09T06:28:03.436Z,21.33
2019-02-09T06:30:34.616Z,23.55
2019-02-09T06:33:03.596Z,23.42
2019-02-09T06:35:32.436Z,22.58
2019-02-09T06:38:03.593Z,22.48
2019-02-09T06:40:32.816Z,21.85
2019-02-09T06:43:03.783Z,20.95
2019-02-09T06:45:34.059Z,22.20
2019-02-09T06:48:25.076Z,20.65
2019-02-09T06:51:02.856Z,20.70
2019-02-09T06:53:51.836Z,21.93
2019-02-09T06:56:24.236Z,20.32
2019-02-09T06:58:54.786Z,21.93
2019-02-09T07:01:35.176Z,22.05
2019-02-09T07:04:04.457Z,22.93
2019-02-09T07:06:36.275Z,23.35
2019-02-09T07:09:09.069Z,22.70
2019-02-09T07:11:53.292Z,22.75
2019-02-09T07:14:22.263Z,20.72
2019-02-09T07:16:51.316Z,20.80
2019-02-09T07:19:20.956Z,21.73
2019-02-09T07:21:51.964Z,22.75
2019-02-09T07:26:51.336Z,21.93
2019-02-09T07:29:21.865Z,21.12
2019-02-09T07:31:56.527Z,19.35
2019-02-09T07:34:23.696Z,20.40
2019-02-09T07:36:54.184Z,19.60
2019-02-09T07:39:24.636Z,20.05
2019-02-09T07:41:54.424Z,20.70
2019-02-09T07:44:23.755Z,22.50
2019-02-09T07:46:53.736Z,20.25
2019-02-09T07:49:22.816Z,22.73
2019-02-09T07:51:54.896Z,20.17
2019-02-09T07:54:26.023Z,20.35
2019-02-09T07:56:56.675Z,24.52
2019-02-09T08:01:55.377Z,20.27
2019-02-09T08:04:24.136Z,19.60
2019-02-09T08:06:54.718Z,25.20
2019-02-09T08:09:23.775Z,23.67
2019-02-09T08:11:53.076Z,19.75
2019-02-09T08:14:23.416Z,22.90
2019-02-09T08:16:55.884Z,19.87
2019-02-09T08:19:24.961Z,21.42
2019-02-09T08:21:53.896Z,26.00
2019-02-09T08:24:26.938Z,26.90
2019-02-09T08:26:57.444Z,25.85
2019-02-09T08:29:26.685Z,26.68
2019-02-09T08:31:57.555Z,23.47
2019-02-09T08:34:28.799Z,24.80
2019-02-09T08:36:57.806Z,23.90
2019-02-09T08:39:27.156Z,22.95
2019-02-09T08:41:58.917Z,27.60
2019-02-09T08:44:27.916Z,24.80
2019-02-09T08:46:57.356Z,21.23
2019-02-09T08:49:28.173Z,25.57
2019-02-09T08:51:58.696Z,20.02
2019-02-09T08:54:27.996Z,24.75
2019-02-09T08:56:57.295Z,24.60
2019-02-09T08:59:26.357Z,22.15
2019-02-09T09:01:55.497Z,28.57
2019-02-09T09:04:24.596Z,29.30
2019-02-09T09:06:53.436Z,25.92
2019-02-09T09:09:22.576Z,23.80
2019-02-09T09:11:51.472Z,27.82
2019-02-09T09:14:22.256Z,26.90
2019-02-09T09:19:22.336Z,26.97
2019-02-09T09:21:51.536Z,19.87
2019-02-09T09:24:20.497Z,21.35
2019-02-09T09:26:49.396Z,22.17
2019-02-09T09:29:20.636Z,21.82
2019-02-09T09:31:51.336Z,23.20
2019-02-09T09:34:20.776Z,27.15
2019-02-09T09:36:49.636Z,26.05
2019-02-09T09:39:18.616Z,24.18
2019-02-09T09:41:47.904Z,26.52
2019-02-09T09:44:17.036Z,23.85
2019-02-09T09:46:45.958Z,24.25
2019-02-09T09:49:15.031Z,26.40
2019-02-09T09:51:43.996Z,26.85
2019-02-09T09:54:13.116Z,22.42
2019-02-09T09:56:44.176Z,24.18
2019-02-09T09:59:13.576Z,25.12
2019-02-09T10:01:44.084Z,31.75
2019-02-09T10:04:14.716Z,31.95
2019-02-09T10:09:11.936Z,26.23
2019-02-09T10:11:42.777Z,28.30
2019-02-09T10:14:12.036Z,22.30
2019-02-09T10:16:40.866Z,22.77
2019-02-09T10:19:11.572Z,23.47
2019-02-09T10:21:40.696Z,22.55
2019-02-09T10:24:11.376Z,25.88
2019-02-09T10:26:40.360Z,21.27
2019-02-09T10:29:09.224Z,24.70
2019-02-09T10:31:39.073Z,24.05
2019-02-09T10:34:09.776Z,24.00
2019-02-09T10:39:08.616Z,21.30
2019-02-09T10:41:39.036Z,21.77
2019-02-09T10:44:09.776Z,18.32
2019-02-09T10:49:07.836Z,21.70
2019-02-09T10:51:38.697Z,24.82
2019-02-09T10:56:37.696Z,24.20
2019-02-09T10:59:06.696Z,25.00
2019-02-09T11:01:35.796Z,22.27
2019-02-09T11:04:06.305Z,24.50
2019-02-09T11:09:25.417Z,26.15
2019-02-09T11:11:57.376Z,23.85
2019-02-09T11:14:26.496Z,21.20
2019-02-09T11:16:55.896Z,26.97
2019-02-09T11:19:25.196Z,21.05
2019-02-09T11:21:54.479Z,26.35
2019-02-09T11:24:25.509Z,22.25
2019-02-09T11:26:55.436Z,23.77
2019-02-09T11:29:24.296Z,27.17
2019-02-09T11:31:53.356Z,20.75
2019-02-09T11:34:22.436Z,20.55
2019-02-09T11:36:53.044Z,22.25
2019-02-09T11:39:22.236Z,21.20
2019-02-09T11:41:52.210Z,22.50
2019-02-09T11:44:21.219Z,23.40
2019-02-09T11:46:50.377Z,22.80
2019-02-09T11:49:19.616Z,23.30
2019-02-09T11:51:50.376Z,20.45
2019-02-09T11:56:47.956Z,23.98
2019-02-09T11:59:18.577Z,19.37
2019-02-09T12:01:51.933Z,21.87
2019-02-09T12:04:22.816Z,19.60
2019-02-09T12:09:20.016Z,21.33
2019-02-09T12:11:53.699Z,18.87
2019-02-09T12:14:25.876Z,23.38
2019-02-09T12:16:56.577Z,21.02
2019-02-09T12:19:33.825Z,19.23
2019-02-09T12:22:04.536Z,20.08
2019-02-09T12:27:07.496Z,21.17
2019-02-09T12:29:37.916Z,21.45
2019-02-09T12:32:07.217Z,16.77
2019-02-09T12:34:40.778Z,18.27
2019-02-09T12:37:10.096Z,19.12
2019-02-09T12:39:39.498Z,18.73
2019-02-09T12:42:08.617Z,17.80
2019-02-09T12:44:38.176Z,15.85
2019-02-09T12:47:07.120Z,19.57
2019-02-09T12:49:36.196Z,19.92
2019-02-09T12:52:05.256Z,18.00
2019-02-09T12:54:34.236Z,20.80
2019-02-09T12:57:04.976Z,19.02
2019-02-09T13:02:02.658Z,17.52
2019-02-09T13:04:31.896Z,17.92
2019-02-09T13:07:02.456Z,19.12
2019-02-09T13:09:31.279Z,18.73
2019-02-09T13:12:01.556Z,17.90
2019-02-09T13:14:33.836Z,16.62
2019-02-09T13:17:03.956Z,18.12
2019-02-09T13:19:32.856Z,18.02
2019-02-09T13:22:02.096Z,16.55
2019-02-09T13:24:32.876Z,18.20
2019-02-09T13:29:33.216Z,18.93
2019-02-09T13:32:02.199Z,17.65
2019-02-09T13:34:31.356Z,23.73
2019-02-09T13:37:00.538Z,17.55
2019-02-09T13:39:48.956Z,23.15
2019-02-09T13:42:18.037Z,22.58
2019-02-09T13:44:46.837Z,19.92
2019-02-09T13:47:16.576Z,18.52
2019-02-09T13:49:47.736Z,26.95
2019-02-09T13:52:19.396Z,16.27
2019-02-09T13:54:51.720Z,19.20
2019-02-09T13:57:21.176Z,23.65
2019-02-09T13:59:50.376Z,15.98
2019-02-09T14:02:19.596Z,23.95
2019-02-09T14:04:49.144Z,18.92
2019-02-09T14:07:19.565Z,22.02
2019-02-09T14:09:51.011Z,22.32
2019-02-09T14:12:21.496Z,23.92
2019-02-09T14:14:51.699Z,23.65
2019-02-09T14:17:20.884Z,21.30
2019-02-09T14:19:54.537Z,21.60
2019-02-09T14:22:24.898Z,22.62
2019-02-09T14:24:54.116Z,20.95
2019-02-09T14:27:24.176Z,17.73
2019-02-09T14:29:53.356Z,17.85
2019-02-09T14:32:22.487Z,18.65
2019-02-09T14:34:52.916Z,20.30
2019-02-09T14:37:26.257Z,17.15
2019-02-09T14:39:55.539Z,19.52
2019-02-09T14:42:27.587Z,20.72
2019-02-09T14:44:56.940Z,18.27
2019-02-09T14:47:26.098Z,17.77
2019-02-09T14:49:56.796Z,19.05
2019-02-09T14:52:26.020Z,18.27
2019-02-09T14:54:55.176Z,17.75
2019-02-09T14:57:25.297Z,19.77
2019-02-09T14:59:54.663Z,14.90
2019-02-09T15:02:24.032Z,16.35
2019-02-09T15:04:53.359Z,16.45
2019-02-09T15:07:25.124Z,17.73
2019-02-09T15:09:54.396Z,19.48
2019-02-09T15:12:24.776Z,18.37
2019-02-09T15:14:54.036Z,16.67
2019-02-09T15:17:25.756Z,18.02
2019-02-09T15:19:56.377Z,18.60
2019-02-09T15:22:27.176Z,20.23
2019-02-09T15:24:56.518Z,17.07
2019-02-09T15:27:26.905Z,17.27
2019-02-09T15:29:56.156Z,19.62
2019-02-09T15:32:25.436Z,23.32
2019-02-09T15:34:54.944Z,20.68
2019-02-09T15:37:24.057Z,22.50
2019-02-09T15:39:54.396Z,19.75
2019-02-09T15:42:24.597Z,27.15
2019-02-09T15:44:53.857Z,19.35
2019-02-09T15:47:24.332Z,21.73
2019-02-09T15:49:53.864Z,22.85
2019-02-09T15:52:22.996Z,22.27
2019-02-09T15:54:53.856Z,22.77
2019-02-09T15:57:24.304Z,19.90
2019-02-09T15:59:53.517Z,19.12
2019-02-09T16:02:22.976Z,18.87
2019-02-09T16:04:55.206Z,19.80
2019-02-09T16:07:24.936Z,16.50
2019-02-09T16:09:54.556Z,20.12
2019-02-09T16:12:26.022Z,16.35
2019-02-09T16:14:55.456Z,20.35
2019-02-09T16:17:24.656Z,18.50
2019-02-09T16:19:57.757Z,20.90
2019-02-09T16:22:26.576Z,18.87
2019-02-09T16:24:55.477Z,19.25
2019-02-09T16:27:25.605Z,15.88
2019-02-09T16:29:56.224Z,21.95
2019-02-09T16:32:25.316Z,18.25
2019-02-09T16:34:54.296Z,19.30
2019-02-09T16:37:24.676Z,19.23
2019-02-09T16:39:53.918Z,13.05
2019-02-09T16:42:24.896Z,18.67
2019-02-09T16:44:54.016Z,18.30
2019-02-09T16:47:23.338Z,18.75
2019-02-09T16:49:52.696Z,14.95
2019-02-09T16:52:22.516Z,18.35
2019-02-09T16:54:51.997Z,13.40
2019-02-09T16:57:21.084Z,16.87
2019-02-09T16:59:50.076Z,16.00
2019-02-09T17:02:19.644Z,16.90
2019-02-09T17:04:48.576Z,17.10
2019-02-09T17:07:17.676Z,16.25
2019-02-09T17:09:47.807Z,19.15
2019-02-09T17:12:16.956Z,17.57
2019-02-09T17:14:45.920Z,16.40
2019-02-09T17:17:15.036Z,16.35
2019-02-09T17:19:45.757Z,18.77
2019-02-09T17:24:45.356Z,19.23
2019-02-09T17:27:14.516Z,16.32
2019-02-09T17:29:44.897Z,16.70
2019-02-09T17:32:14.696Z,16.73
2019-02-09T17:34:44.936Z,14.03
2019-02-09T17:37:13.796Z,14.55
2019-02-09T17:39:46.576Z,14.13
2019-02-09T17:42:16.456Z,17.27
2019-02-09T17:44:49.598Z,18.62
2019-02-09T17:47:21.244Z,15.60
2019-02-09T17:49:53.216Z,13.98
2019-02-09T17:52:23.913Z,17.92
2019-02-09T17:57:23.036Z,13.65
2019-02-09T17:59:52.196Z,16.37
2019-02-09T18:02:21.416Z,14.63
2019-02-09T18:04:51.636Z,14.98
2019-02-09T18:07:20.678Z,14.50
2019-02-09T18:09:51.203Z,14.63
2019-02-09T18:12:22.336Z,14.03
2019-02-09T18:14:51.763Z,15.25
2019-02-09T18:17:20.898Z,15.95
2019-02-09T18:19:49.656Z,12.37
2019-02-09T18:22:20.136Z,14.98
2019-02-09T18:24:51.216Z,15.75
2019-02-09T18:27:20.404Z,14.93
2019-02-09T18:29:51.157Z,16.85
2019-02-09T18:32:20.176Z,13.55
2019-02-09T18:34:55.838Z,13.90
2019-02-09T18:39:49.197Z,13.43
2019-02-09T18:42:19.711Z,14.55
2019-02-09T18:44:50.324Z,13.83
2019-02-09T18:49:51.039Z,17.27
2019-02-09T18:52:22.436Z,14.75
2019-02-09T18:54:52.725Z,16.62
2019-02-09T18:57:21.856Z,18.30
2019-02-09T18:59:51.016Z,15.15
2019-02-09T19:02:27.652Z,16.55
2019-02-09T19:05:04.145Z,18.45
2019-02-09T19:07:31.716Z,23.77
2019-02-09T19:10:01.096Z,15.08
2019-02-09T19:12:33.176Z,17.17
2019-02-09T19:15:02.076Z,22.85
2019-02-09T19:17:31.076Z,15.85
2019-02-09T19:20:01.496Z,19.35
2019-02-09T19:22:30.276Z,22.30
2019-02-09T19:24:59.276Z,17.65
2019-02-09T19:27:30.437Z,20.32
2019-02-09T19:30:01.056Z,15.18
2019-02-09T19:32:30.257Z,18.52
2019-02-09T19:35:01.317Z,19.05
2019-02-09T19:37:32.484Z,21.23
2019-02-09T19:40:01.458Z,17.82
2019-02-09T19:42:32.056Z,20.17
2019-02-09T19:45:02.316Z,22.60
2019-02-09T19:47:31.396Z,16.23
2019-02-09T19:50:00.737Z,17.70
2019-02-09T19:52:30.064Z,16.07
2019-02-09T19:54:59.116Z,16.95
2019-02-09T19:57:30.217Z,22.65
2019-02-09T19:59:59.316Z,20.50
2019-02-09T20:02:28.419Z,15.63
2019-02-09T20:04:57.276Z,14.95
2019-02-09T20:07:26.616Z,17.00
2019-02-09T20:09:56.036Z,19.52
2019-02-09T20:12:26.636Z,16.60
2019-02-09T20:14:58.379Z,17.02
2019-02-09T20:17:27.296Z,21.10
2019-02-09T20:19:56.657Z,17.95
2019-02-09T20:22:25.716Z,20.02
2019-02-09T20:24:55.496Z,17.82
2019-02-09T20:27:24.576Z,18.42
2019-02-09T20:29:54.937Z,16.97
2019-02-09T20:32:24.316Z,15.03
2019-02-09T20:34:57.724Z,14.13
2019-02-09T20:37:28.625Z,17.52
2019-02-09T20:39:57.876Z,15.40
2019-02-09T20:42:26.996Z,15.83
2019-02-09T20:44:56.175Z,17.90
2019-02-09T20:47:25.536Z,15.38
2019-02-09T20:49:57.536Z,14.58
2019-02-09T20:52:28.136Z,14.60
2019-02-09T20:54:59.656Z,14.60
2019-02-09T20:57:29.944Z,19.82
2019-02-09T21:00:00.678Z,17.05
2019-02-09T21:05:14.556Z,15.35
2019-02-09T21:07:31.176Z,15.98
2019-02-09T21:10:00.216Z,16.27
2019-02-09T21:12:29.037Z,16.82
2019-02-09T21:15:01.136Z,12.15
2019-02-09T21:17:30.596Z,14.35
2019-02-09T21:19:59.617Z,14.35
2019-02-09T21:22:31.836Z,16.77
2019-02-09T21:25:01.036Z,15.38
2019-02-09T21:27:30.118Z,14.53
2019-02-09T21:30:01.275Z,17.65
2019-02-09T21:32:32.118Z,16.25
2019-02-09T21:35:01.285Z,13.08
2019-02-09T21:37:30.536Z,15.23
2019-02-09T21:39:59.476Z,14.43
2019-02-09T21:42:28.426Z,13.03
2019-02-09T21:44:57.578Z,13.93
2019-02-09T21:47:28.325Z,12.23
2019-02-09T21:50:00.260Z,15.28
2019-02-09T21:52:29.776Z,17.37
2019-02-09T21:55:00.473Z,14.25
2019-02-09T22:00:00.037Z,13.22
2019-02-09T22:02:30.739Z,11.90
2019-02-09T22:05:00.609Z,13.95
2019-02-09T22:07:33.816Z,13.85
2019-02-09T22:10:02.943Z,12.63
2019-02-09T22:12:32.038Z,18.45
2019-02-09T22:15:08.319Z,15.95
2019-02-09T22:17:45.098Z,14.05
2019-02-09T22:20:17.117Z,14.58
2019-02-09T22:22:46.437Z,14.70
2019-02-09T22:25:24.183Z,13.13
2019-02-09T22:27:54.997Z,15.35
2019-02-09T22:30:31.919Z,14.85
2019-02-09T22:33:04.123Z,15.80
2019-02-09T22:35:39.685Z,14.45
2019-02-09T22:38:08.779Z,17.55
2019-02-09T22:40:40.237Z,13.18
2019-02-09T22:43:12.360Z,17.25
2019-02-09T22:45:41.283Z,15.63
2019-02-09T22:48:11.577Z,16.05
2019-02-09T22:50:43.032Z,17.55
2019-02-09T22:53:13.296Z,15.72
2019-02-09T22:55:42.531Z,15.23
2019-02-09T22:58:11.756Z,16.85
2019-02-09T23:00:57.536Z,15.03
2019-02-09T23:03:32.479Z,14.23
2019-02-09T23:06:33.396Z,15.35
2019-02-09T23:11:31.244Z,14.78
2019-02-09T23:14:01.676Z,15.08
2019-02-09T23:16:31.197Z,13.48
2019-02-09T23:19:01.196Z,15.38
2019-02-09T23:21:30.536Z,17.23
2019-02-09T23:23:59.316Z,13.50
2019-02-09T23:26:30.516Z,16.48
2019-02-09T23:28:59.536Z,14.80
2019-02-09T23:31:28.916Z,15.48
2019-02-09T23:33:58.821Z,15.68
2019-02-09T23:36:29.338Z,14.58
2019-02-09T23:38:59.796Z,14.45
2019-02-09T23:41:28.958Z,13.08
2019-02-09T23:43:58.184Z,15.15
2019-02-09T23:46:28.916Z,15.58
2019-02-09T23:51:27.056Z,13.05
2019-02-09T23:53:59.247Z,16.00
2019-02-09T23:56:28.596Z,16.20
2019-02-09T23:58:59.139Z,14.47
